PWSweather.com
Personal Weather Stations
Station Observations
ISARDEGN48
BittiIT 08021

BittiIT 08021

Lat: 40.4805, Lon: 9.3887

Elevation: 1804

Station Type: La Crosse WS2355

http://meteobitti.altervista.org

High Low Average
Temperature 47.5°F8.6°C 41.5°F5.3°C 45.2°F7.3°C
Dew Point 44.2°F6.8°C 38.2°F3.4°C 42.3°F5.7°C
Winds 56.6 mph 91.1 kmh Calm Calm 3.0 mph E4.8 kmh E
Wind Gusts 56.6 mph91.1 kmh -- 7.0 mph11.3 kmh
Humidity 93% 85% 89%
Pressure 29.69 in1005.4 mb 29.41 in995.9 mb -
Precipitation 0.92 in23.4 mm - -
Hour Temp Dew Point Humidity Winds Wind Gusts Pressure Precip Precip Rate Daily Precip Total
12:00 AM 46.2°F7.9°C 42.3°F5.7°C 86% 9.8 mph SSW15.8 kmh SSW 10.7 mph17.2 kmh 29.60 in1002.4 mb 0.00 in0.0 mm 0.00 in0.0 mm 0.00 in0.0 mm
12:05 AM 46.2°F7.9°C 42.3°F5.7°C 86% 6.7 mph SSW10.8 kmh SSW 11.9 mph19.2 kmh 29.60 in1002.4 mb 0.00 in0.0 mm 0.00 in0.0 mm 0.00 in0.0 mm
12:10 AM 46.4°F8.0°C 42.5°F5.8°C 86% 13.6 mph SSW21.9 kmh SSW 14.5 mph23.3 kmh 29.60 in1002.4 mb 0.00 in0.0 mm 0.00 in0.0 mm 0.00 in0.0 mm
12:15 AM 46.6°F8.1°C 42.6°F5.9°C 86% 5.4 mph SSW8.7 kmh SSW 15.7 mph25.3 kmh 29.60 in1002.4 mb 0.00 in0.0 mm 0.00 in0.0 mm 0.00 in0.0 mm
12:20 AM 46.6°F8.1°C 42.6°F5.9°C 86% 7.8 mph SSW12.6 kmh SSW 15.7 mph25.3 kmh 29.60 in1002.4 mb 0.00 in0.0 mm 0.00 in0.0 mm 0.00 in0.0 mm
12:25 AM 46.8°F8.2°C 42.5°F5.8°C 85% 3.4 mph SSW5.5 kmh SSW 15.4 mph24.8 kmh 29.60 in1002.4 mb 0.00 in0.0 mm 0.00 in0.0 mm 0.00 in0.0 mm
12:30 AM 46.8°F8.2°C 42.8°F6.0°C 86% 3.1 mph S5.0 kmh S 10.7 mph17.2 kmh 29.61 in1002.7 mb 0.00 in0.0 mm 0.00 in0.0 mm 0.00 in0.0 mm
12:35 AM 46.9°F8.3°C 43.0°F6.1°C 86% 3.6 mph S5.8 kmh S 9.2 mph14.8 kmh 29.61 in1002.7 mb 0.00 in0.0 mm 0.00 in0.0 mm 0.00 in0.0 mm
12:40 AM 46.9°F8.3°C 43.0°F6.1°C 86% 8.5 mph S13.7 kmh S 12.3 mph19.8 kmh 29.62 in1003.0 mb 0.00 in0.0 mm 0.00 in0.0 mm 0.00 in0.0 mm
12:45 AM 46.9°F8.3°C 43.0°F6.1°C 86% 7.2 mph S11.6 kmh S 13.6 mph21.9 kmh 29.62 in1003.0 mb 0.00 in0.0 mm 0.00 in0.0 mm 0.00 in0.0 mm
12:50 AM 46.8°F8.2°C 42.8°F6.0°C 86% 5.1 mph S8.2 kmh S 15.2 mph24.5 kmh 29.62 in1003.0 mb 0.00 in0.0 mm 0.00 in0.0 mm 0.00 in0.0 mm
12:55 AM 46.8°F8.2°C 42.8°F6.0°C 86% 9.8 mph S15.8 kmh S 15.2 mph24.5 kmh 29.61 in1002.7 mb 0.00 in0.0 mm 0.00 in0.0 mm 0.00 in0.0 mm
01:00 AM 46.6°F8.1°C 42.6°F5.9°C 86% 8.7 mph S14.0 kmh S 15.9 mph25.6 kmh 29.62 in1003.0 mb 0.00 in0.0 mm 0.00 in0.0 mm 0.00 in0.0 mm
01:05 AM 46.6°F8.1°C 42.6°F5.9°C 86% 6.5 mph S10.5 kmh S 15.9 mph25.6 kmh 29.62 in1003.0 mb 0.00 in0.0 mm 0.00 in0.0 mm 0.00 in0.0 mm
01:10 AM 46.6°F8.1°C 42.9°F6.1°C 87% 10.5 mph SSW16.9 kmh SSW 14.1 mph22.7 kmh 29.62 in1003.0 mb 0.00 in0.0 mm 0.00 in0.0 mm 0.00 in0.0 mm
01:15 AM 46.2°F7.9°C 42.6°F5.9°C 87% 11.2 mph SSW18.0 kmh SSW 16.3 mph26.2 kmh 29.62 in1003.0 mb 0.00 in0.0 mm 0.00 in0.0 mm 0.00 in0.0 mm
01:20 AM 46.2°F7.9°C 42.6°F5.9°C 87% 10.7 mph S17.2 kmh S 16.6 mph26.7 kmh 29.62 in1003.0 mb 0.00 in0.0 mm 0.00 in0.0 mm 0.00 in0.0 mm
01:25 AM 46.2°F7.9°C 42.6°F5.9°C 87% 7.4 mph S11.9 kmh S 16.6 mph26.7 kmh 29.62 in1003.0 mb 0.00 in0.0 mm 0.00 in0.0 mm 0.00 in0.0 mm
01:30 AM 46.2°F7.9°C 42.3°F5.7°C 86% 14.8 mph S23.8 kmh S 17.2 mph27.7 kmh 29.62 in1003.0 mb 0.00 in0.0 mm 0.00 in0.0 mm 0.00 in0.0 mm
01:35 AM 46.2°F7.9°C 42.3°F5.7°C 86% 13.0 mph S20.9 kmh S 20.6 mph33.2 kmh 29.62 in1003.0 mb 0.00 in0.0 mm 0.00 in0.0 mm 0.00 in0.0 mm
01:40 AM 46.2°F7.9°C 42.3°F5.7°C 86% 13.4 mph SSW21.6 kmh SSW 20.6 mph33.2 kmh 29.61 in1002.7 mb 0.00 in0.0 mm 0.00 in0.0 mm 0.00 in0.0 mm
01:45 AM 46.2°F7.9°C 42.3°F5.7°C 86% 9.6 mph SSW15.4 kmh SSW 18.8 mph30.3 kmh 29.62 in1003.0 mb 0.00 in0.0 mm 0.00 in0.0 mm 0.00 in0.0 mm
01:50 AM 46.2°F7.9°C 42.3°F5.7°C 86% 8.9 mph SSW14.3 kmh SSW 17.7 mph28.5 kmh 29.62 in1003.0 mb 0.00 in0.0 mm 0.00 in0.0 mm 0.00 in0.0 mm
01:55 AM 46.2°F7.9°C 42.3°F5.7°C 86% 10.1 mph SSW16.3 kmh SSW 18.1 mph29.1 kmh 29.62 in1003.0 mb 0.00 in0.0 mm 0.00 in0.0 mm 0.00 in0.0 mm
02:00 AM 46.2°F7.9°C 42.3°F5.7°C 86% 13.4 mph SSW21.6 kmh SSW 19.5 mph31.4 kmh 29.63 in1003.4 mb 0.00 in0.0 mm 0.00 in0.0 mm 0.00 in0.0 mm
02:05 AM 46.2°F7.9°C 42.3°F5.7°C 86% 15.7 mph SSW25.3 kmh SSW 19.5 mph31.4 kmh 29.64 in1003.7 mb 0.00 in0.0 mm 0.00 in0.0 mm 0.00 in0.0 mm
02:10 AM 46.0°F7.8°C 42.1°F5.6°C 86% 17.2 mph SSW27.7 kmh SSW 18.8 mph30.3 kmh 29.64 in1003.7 mb 0.02 in0.5 mm 0.24 in6.1 mm 0.02 in0.5 mm
02:15 AM 46.0°F7.8°C 42.4°F5.8°C 87% 4.3 mph SSW6.9 kmh SSW 17.2 mph27.7 kmh 29.64 in1003.7 mb 0.02 in0.5 mm 0.00 in0.0 mm 0.02 in0.5 mm
02:20 AM 46.0°F7.8°C 42.4°F5.8°C 87% 4.0 mph S6.4 kmh S 14.5 mph23.3 kmh 29.64 in1003.7 mb 0.02 in0.5 mm 0.00 in0.0 mm 0.02 in0.5 mm
02:25 AM 45.7°F7.6°C 41.8°F5.4°C 86% 7.4 mph S11.9 kmh S 15.4 mph24.8 kmh 29.64 in1003.7 mb 0.02 in0.5 mm 0.00 in0.0 mm 0.02 in0.5 mm
02:30 AM 45.7°F7.6°C 41.8°F5.4°C 86% 6.3 mph SSW10.1 kmh SSW 18.3 mph29.5 kmh 29.64 in1003.7 mb 0.02 in0.5 mm 0.00 in0.0 mm 0.02 in0.5 mm
02:35 AM 45.7°F7.6°C 41.8°F5.4°C 86% 13.0 mph SSW20.9 kmh SSW 19.2 mph30.9 kmh 29.64 in1003.7 mb 0.02 in0.5 mm 0.00 in0.0 mm 0.02 in0.5 mm
02:40 AM 45.7°F7.6°C 41.8°F5.4°C 86% 7.8 mph SSW12.6 kmh SSW 19.2 mph30.9 kmh 29.64 in1003.7 mb 0.02 in0.5 mm 0.00 in0.0 mm 0.02 in0.5 mm
02:45 AM 45.9°F7.7°C 41.9°F5.5°C 86% 8.9 mph SSW14.3 kmh SSW 18.8 mph30.3 kmh 29.64 in1003.7 mb 0.02 in0.5 mm 0.00 in0.0 mm 0.02 in0.5 mm
02:50 AM 46.0°F7.8°C 42.1°F5.6°C 86% 14.5 mph SSW23.3 kmh SSW 20.6 mph33.2 kmh 29.64 in1003.7 mb 0.02 in0.5 mm 0.00 in0.0 mm 0.02 in0.5 mm
02:55 AM 46.0°F7.8°C 42.1°F5.6°C 86% 13.6 mph SSW21.9 kmh SSW 20.6 mph33.2 kmh 29.64 in1003.7 mb 0.02 in0.5 mm 0.00 in0.0 mm 0.02 in0.5 mm
03:00 AM 45.9°F7.7°C 42.2°F5.7°C 87% 10.3 mph SSW16.6 kmh SSW 19.7 mph31.7 kmh 29.64 in1003.7 mb 0.02 in0.5 mm 0.00 in0.0 mm 0.02 in0.5 mm
03:05 AM 45.7°F7.6°C 42.1°F5.6°C 87% 12.1 mph SSW19.5 kmh SSW 15.9 mph25.6 kmh 29.63 in1003.4 mb 0.00 in0.0 mm 0.00 in0.0 mm 0.02 in0.5 mm
03:10 AM 45.7°F7.6°C 42.1°F5.6°C 87% 14.3 mph SSW23.0 kmh SSW 18.8 mph30.3 kmh 29.64 in1003.7 mb 0.00 in0.0 mm 0.00 in0.0 mm 0.02 in0.5 mm
03:15 AM 45.7°F7.6°C 41.8°F5.4°C 86% 8.9 mph SSW14.3 kmh SSW 19.7 mph31.7 kmh 29.64 in1003.7 mb 0.00 in0.0 mm 0.00 in0.0 mm 0.02 in0.5 mm
03:20 AM 45.7°F7.6°C 41.8°F5.4°C 86% 12.1 mph SSW19.5 kmh SSW 19.7 mph31.7 kmh 29.63 in1003.4 mb 0.00 in0.0 mm 0.00 in0.0 mm 0.02 in0.5 mm
03:25 AM 45.9°F7.7°C 41.9°F5.5°C 86% 12.3 mph S19.8 kmh S 15.7 mph25.3 kmh 29.64 in1003.7 mb 0.00 in0.0 mm 0.00 in0.0 mm 0.02 in0.5 mm
03:30 AM 45.9°F7.7°C 41.6°F5.3°C 85% 11.2 mph S18.0 kmh S 17.4 mph28.0 kmh 29.64 in1003.7 mb 0.00 in0.0 mm 0.00 in0.0 mm 0.02 in0.5 mm
03:35 AM 46.0°F7.8°C 41.8°F5.4°C 85% 10.5 mph S16.9 kmh S 17.9 mph28.8 kmh 29.64 in1003.7 mb 0.00 in0.0 mm 0.00 in0.0 mm 0.02 in0.5 mm
03:40 AM 46.0°F7.8°C 41.8°F5.4°C 85% 12.3 mph S19.8 kmh S 17.9 mph28.8 kmh 29.64 in1003.7 mb 0.00 in0.0 mm 0.00 in0.0 mm 0.02 in0.5 mm
03:45 AM 45.9°F7.7°C 41.9°F5.5°C 86% 8.1 mph SSW13.0 kmh SSW 16.8 mph27.0 kmh 29.64 in1003.7 mb 0.00 in0.0 mm 0.00 in0.0 mm 0.02 in0.5 mm
03:50 AM 45.7°F7.6°C 41.8°F5.4°C 86% 8.5 mph SSW13.7 kmh SSW 13.0 mph20.9 kmh 29.64 in1003.7 mb 0.00 in0.0 mm 0.00 in0.0 mm 0.02 in0.5 mm
03:55 AM 45.5°F7.5°C 41.9°F5.5°C 87% 10.3 mph SSW16.6 kmh SSW 17.7 mph28.5 kmh 29.64 in1003.7 mb 0.00 in0.0 mm 0.00 in0.0 mm 0.02 in0.5 mm
04:00 AM 45.5°F7.5°C 41.9°F5.5°C 87% 8.3 mph SSW13.4 kmh SSW 18.3 mph29.5 kmh 29.64 in1003.7 mb 0.00 in0.0 mm 0.00 in0.0 mm 0.02 in0.5 mm
04:05 AM 45.5°F7.5°C 41.9°F5.5°C 87% 11.4 mph SSW18.3 kmh SSW 18.3 mph29.5 kmh 29.64 in1003.7 mb 0.00 in0.0 mm 0.00 in0.0 mm 0.02 in0.5 mm
04:10 AM 45.3°F7.4°C 41.4°F5.2°C 86% 9.6 mph SSW15.4 kmh SSW 13.6 mph21.9 kmh 29.64 in1003.7 mb 0.00 in0.0 mm 0.00 in0.0 mm 0.02 in0.5 mm
04:15 AM 45.3°F7.4°C 41.4°F5.2°C 86% 11.6 mph SSW18.7 kmh SSW 15.9 mph25.6 kmh 29.64 in1003.7 mb 0.00 in0.0 mm 0.00 in0.0 mm 0.02 in0.5 mm
04:20 AM 45.3°F7.4°C 41.4°F5.2°C 86% 14.1 mph SSW22.7 kmh SSW 15.9 mph25.6 kmh 29.64 in1003.7 mb 0.00 in0.0 mm 0.00 in0.0 mm 0.02 in0.5 mm
04:25 AM 45.1°F7.3°C 40.9°F4.9°C 85% 11.9 mph SSW19.2 kmh SSW 15.2 mph24.5 kmh 29.64 in1003.7 mb 0.00 in0.0 mm 0.00 in0.0 mm 0.02 in0.5 mm
04:30 AM 45.1°F7.3°C 40.9°F4.9°C 85% 8.9 mph SSW14.3 kmh SSW 15.2 mph24.5 kmh 29.64 in1003.7 mb 0.00 in0.0 mm 0.00 in0.0 mm 0.02 in0.5 mm
04:35 AM 45.1°F7.3°C 40.9°F4.9°C 85% 9.4 mph SSW15.1 kmh SSW 13.6 mph21.9 kmh 29.64 in1003.7 mb 0.00 in0.0 mm 0.00 in0.0 mm 0.02 in0.5 mm
04:40 AM 45.1°F7.3°C 40.9°F4.9°C 85% 8.3 mph SSW13.4 kmh SSW 14.3 mph23.0 kmh 29.65 in1004.1 mb 0.00 in0.0 mm 0.00 in0.0 mm 0.02 in0.5 mm
04:45 AM 45.0°F7.2°C 40.7°F4.8°C 85% 11.4 mph SSW18.3 kmh SSW 14.3 mph23.0 kmh 29.65 in1004.1 mb 0.00 in0.0 mm 0.00 in0.0 mm 0.02 in0.5 mm
04:50 AM 44.8°F7.1°C 40.5°F4.7°C 85% 8.1 mph SSW13.0 kmh SSW 12.3 mph19.8 kmh 29.65 in1004.1 mb 0.00 in0.0 mm 0.00 in0.0 mm 0.02 in0.5 mm
04:55 AM 44.8°F7.1°C 40.5°F4.7°C 85% 6.9 mph SSW11.1 kmh SSW 12.1 mph19.5 kmh 29.65 in1004.1 mb 0.00 in0.0 mm 0.00 in0.0 mm 0.02 in0.5 mm
05:00 AM 44.6°F7.0°C 40.4°F4.7°C 85% 9.8 mph SSW15.8 kmh SSW 10.5 mph16.9 kmh 29.65 in1004.1 mb 0.00 in0.0 mm 0.00 in0.0 mm 0.02 in0.5 mm
05:05 AM 44.6°F7.0°C 40.4°F4.7°C 85% Calm Calm 9.8 mph15.8 kmh 29.65 in1004.1 mb 0.00 in0.0 mm 0.00 in0.0 mm 0.02 in0.5 mm
05:10 AM 44.2°F6.8°C 40.0°F4.4°C 85% 1.3 mph SE2.1 kmh SE 9.8 mph15.8 kmh 29.66 in1004.4 mb 0.00 in0.0 mm 0.00 in0.0 mm 0.02 in0.5 mm
05:15 AM 44.1°F6.7°C 40.1°F4.5°C 86% Calm Calm 3.1 mph5.0 kmh 29.66 in1004.4 mb 0.00 in0.0 mm 0.00 in0.0 mm 0.02 in0.5 mm
05:20 AM 43.9°F6.6°C 40.0°F4.4°C 86% 2.5 mph SW4.0 kmh SW 2.7 mph4.3 kmh 29.66 in1004.4 mb 0.00 in0.0 mm 0.00 in0.0 mm 0.02 in0.5 mm
05:25 AM 43.5°F6.4°C 39.6°F4.2°C 86% 2.5 mph SW4.0 kmh SW 3.1 mph5.0 kmh 29.66 in1004.4 mb 0.00 in0.0 mm 0.00 in0.0 mm 0.02 in0.5 mm
05:30 AM 43.2°F6.2°C 39.5°F4.2°C 87% Calm Calm 3.1 mph5.0 kmh 29.66 in1004.4 mb 0.00 in0.0 mm 0.00 in0.0 mm 0.02 in0.5 mm
05:35 AM 42.8°F6.0°C 39.2°F4.0°C 87% 4.0 mph SSW6.4 kmh SSW 4.0 mph6.4 kmh 29.66 in1004.4 mb 0.00 in0.0 mm 0.00 in0.0 mm 0.02 in0.5 mm
05:40 AM 42.6°F5.9°C 39.0°F3.9°C 87% 2.2 mph SW3.5 kmh SW 4.0 mph6.4 kmh 29.66 in1004.4 mb 0.00 in0.0 mm 0.00 in0.0 mm 0.02 in0.5 mm
05:45 AM 42.6°F5.9°C 39.3°F4.1°C 88% 2.0 mph SW3.2 kmh SW 3.6 mph5.8 kmh 29.66 in1004.4 mb 0.00 in0.0 mm 0.00 in0.0 mm 0.02 in0.5 mm
05:50 AM 42.4°F5.8°C 39.1°F3.9°C 88% 1.8 mph SW2.9 kmh SW 3.8 mph6.1 kmh 29.66 in1004.4 mb 0.00 in0.0 mm 0.00 in0.0 mm 0.02 in0.5 mm
05:55 AM 42.4°F5.8°C 39.1°F3.9°C 88% 2.7 mph SW4.3 kmh SW 3.8 mph6.1 kmh 29.66 in1004.4 mb 0.00 in0.0 mm 0.00 in0.0 mm 0.02 in0.5 mm
06:00 AM 42.4°F5.8°C 39.4°F4.1°C 89% Calm Calm 3.1 mph5.0 kmh 29.66 in1004.4 mb 0.00 in0.0 mm 0.00 in0.0 mm 0.02 in0.5 mm
06:05 AM 42.3°F5.7°C 39.3°F4.1°C 89% Calm Calm -- 29.66 in1004.4 mb 0.00 in0.0 mm 0.00 in0.0 mm 0.02 in0.5 mm
06:10 AM 42.1°F5.6°C 39.1°F3.9°C 89% Calm Calm -- 29.66 in1004.4 mb 0.00 in0.0 mm 0.00 in0.0 mm 0.02 in0.5 mm
06:15 AM 41.9°F5.5°C 38.9°F3.8°C 89% Calm Calm 0.7 mph1.1 kmh 29.66 in1004.4 mb 0.00 in0.0 mm 0.00 in0.0 mm 0.02 in0.5 mm
06:20 AM 41.9°F5.5°C 38.9°F3.8°C 89% Calm Calm 0.7 mph1.1 kmh 29.66 in1004.4 mb 0.00 in0.0 mm 0.00 in0.0 mm 0.02 in0.5 mm
06:25 AM 41.7°F5.4°C 38.7°F3.7°C 89% Calm Calm 0.7 mph1.1 kmh 29.66 in1004.4 mb 0.00 in0.0 mm 0.00 in0.0 mm 0.02 in0.5 mm
06:30 AM 41.7°F5.4°C 38.7°F3.7°C 89% Calm Calm 1.3 mph2.1 kmh 29.67 in1004.7 mb 0.00 in0.0 mm 0.00 in0.0 mm 0.02 in0.5 mm
06:35 AM 41.5°F5.3°C 38.2°F3.4°C 88% Calm Calm 1.3 mph2.1 kmh 29.67 in1004.7 mb 0.00 in0.0 mm 0.00 in0.0 mm 0.02 in0.5 mm
06:40 AM 41.5°F5.3°C 38.5°F3.6°C 89% Calm Calm 1.1 mph1.8 kmh 29.67 in1004.7 mb 0.00 in0.0 mm 0.00 in0.0 mm 0.02 in0.5 mm
06:45 AM 41.5°F5.3°C 38.5°F3.6°C 89% Calm Calm 1.1 mph1.8 kmh 29.67 in1004.7 mb 0.00 in0.0 mm 0.00 in0.0 mm 0.02 in0.5 mm
06:50 AM 41.5°F5.3°C 38.5°F3.6°C 89% Calm Calm 1.1 mph1.8 kmh 29.67 in1004.7 mb 0.00 in0.0 mm 0.00 in0.0 mm 0.02 in0.5 mm
06:55 AM 41.9°F5.5°C 38.9°F3.8°C 89% 1.8 mph SW2.9 kmh SW 2.9 mph4.7 kmh 29.67 in1004.7 mb 0.00 in0.0 mm 0.00 in0.0 mm 0.02 in0.5 mm
07:00 AM 42.1°F5.6°C 39.4°F4.1°C 90% 3.1 mph SW5.0 kmh SW 3.1 mph5.0 kmh 29.67 in1004.7 mb 0.00 in0.0 mm 0.00 in0.0 mm 0.02 in0.5 mm
07:05 AM 42.1°F5.6°C 39.4°F4.1°C 90% 2.2 mph SW3.5 kmh SW 3.6 mph5.8 kmh 29.67 in1004.7 mb 0.00 in0.0 mm 0.00 in0.0 mm 0.02 in0.5 mm
07:10 AM 42.4°F5.8°C 39.7°F4.3°C 90% Calm Calm 3.6 mph5.8 kmh 29.67 in1004.7 mb 0.00 in0.0 mm 0.00 in0.0 mm 0.02 in0.5 mm
07:15 AM 42.4°F5.8°C 39.7°F4.3°C 90% 56.6 mph WSW91.1 kmh WSW 56.6 mph91.1 kmh 29.68 in1005.1 mb 0.00 in0.0 mm 0.00 in0.0 mm 0.02 in0.5 mm
07:20 AM 42.4°F5.8°C 39.7°F4.3°C 90% Calm Calm 56.6 mph91.1 kmh 29.67 in1004.7 mb 0.00 in0.0 mm 0.00 in0.0 mm 0.02 in0.5 mm
07:25 AM 42.6°F5.9°C 39.9°F4.4°C 90% Calm Calm 1.3 mph2.1 kmh 29.68 in1005.1 mb 0.00 in0.0 mm 0.00 in0.0 mm 0.02 in0.5 mm
07:30 AM 42.4°F5.8°C 39.7°F4.3°C 90% Calm Calm -- 29.68 in1005.1 mb 0.00 in0.0 mm 0.00 in0.0 mm 0.02 in0.5 mm
07:35 AM 42.4°F5.8°C 39.7°F4.3°C 90% Calm Calm 1.1 mph1.8 kmh 29.68 in1005.1 mb 0.00 in0.0 mm 0.00 in0.0 mm 0.02 in0.5 mm
07:40 AM 42.4°F5.8°C 39.7°F4.3°C 90% Calm Calm 1.3 mph2.1 kmh 29.68 in1005.1 mb 0.00 in0.0 mm 0.00 in0.0 mm 0.02 in0.5 mm
07:45 AM 42.6°F5.9°C 39.9°F4.4°C 90% 0.7 mph E1.1 kmh E 2.0 mph3.2 kmh 29.68 in1005.1 mb 0.00 in0.0 mm 0.00 in0.0 mm 0.02 in0.5 mm
07:50 AM 42.6°F5.9°C 39.9°F4.4°C 90% Calm Calm 2.0 mph3.2 kmh 29.68 in1005.1 mb 0.00 in0.0 mm 0.00 in0.0 mm 0.02 in0.5 mm
07:55 AM 42.6°F5.9°C 39.9°F4.4°C 90% Calm Calm 2.0 mph3.2 kmh 29.68 in1005.1 mb 0.00 in0.0 mm 0.00 in0.0 mm 0.02 in0.5 mm
08:00 AM 42.6°F5.9°C 39.9°F4.4°C 90% 2.2 mph SE3.5 kmh SE 2.2 mph3.5 kmh 29.68 in1005.1 mb 0.00 in0.0 mm 0.00 in0.0 mm 0.02 in0.5 mm
08:05 AM 43.0°F6.1°C 40.3°F4.6°C 90% 2.0 mph SW3.2 kmh SW 2.5 mph4.0 kmh 29.68 in1005.1 mb 0.00 in0.0 mm 0.00 in0.0 mm 0.02 in0.5 mm
08:10 AM 43.3°F6.3°C 40.6°F4.8°C 90% 2.0 mph SW3.2 kmh SW 2.9 mph4.7 kmh 29.68 in1005.1 mb 0.00 in0.0 mm 0.00 in0.0 mm 0.02 in0.5 mm
08:15 AM 43.3°F6.3°C 40.6°F4.8°C 90% 2.2 mph SW3.5 kmh SW 3.6 mph5.8 kmh 29.68 in1005.1 mb 0.00 in0.0 mm 0.00 in0.0 mm 0.02 in0.5 mm
08:20 AM 43.5°F6.4°C 40.8°F4.9°C 90% 2.7 mph SSW4.3 kmh SSW 3.6 mph5.8 kmh 29.68 in1005.1 mb 0.00 in0.0 mm 0.00 in0.0 mm 0.02 in0.5 mm
08:25 AM 43.9°F6.6°C 41.2°F5.1°C 90% 2.9 mph SSW4.7 kmh SSW 4.0 mph6.4 kmh 29.68 in1005.1 mb 0.00 in0.0 mm 0.00 in0.0 mm 0.02 in0.5 mm
08:30 AM 44.2°F6.8°C 41.5°F5.3°C 90% Calm Calm 4.0 mph6.4 kmh 29.69 in1005.4 mb 0.00 in0.0 mm 0.00 in0.0 mm 0.02 in0.5 mm
08:35 AM 44.4°F6.9°C 41.7°F5.4°C 90% Calm Calm 3.6 mph5.8 kmh 29.69 in1005.4 mb 0.00 in0.0 mm 0.00 in0.0 mm 0.02 in0.5 mm
08:40 AM 44.4°F6.9°C 41.7°F5.4°C 90% Calm Calm 0.7 mph1.1 kmh 29.69 in1005.4 mb 0.00 in0.0 mm 0.00 in0.0 mm 0.02 in0.5 mm
08:45 AM 44.4°F6.9°C 41.7°F5.4°C 90% Calm Calm 1.1 mph1.8 kmh 29.68 in1005.1 mb 0.00 in0.0 mm 0.00 in0.0 mm 0.02 in0.5 mm
08:50 AM 44.2°F6.8°C 41.5°F5.3°C 90% Calm Calm 2.7 mph4.3 kmh 29.69 in1005.4 mb 0.00 in0.0 mm 0.00 in0.0 mm 0.02 in0.5 mm
08:55 AM 44.2°F6.8°C 41.5°F5.3°C 90% Calm Calm 2.7 mph4.3 kmh 29.69 in1005.4 mb 0.00 in0.0 mm 0.00 in0.0 mm 0.02 in0.5 mm
09:00 AM 44.2°F6.8°C 41.5°F5.3°C 90% Calm Calm 1.3 mph2.1 kmh 29.69 in1005.4 mb 0.00 in0.0 mm 0.00 in0.0 mm 0.02 in0.5 mm
09:05 AM 44.4°F6.9°C 41.7°F5.4°C 90% Calm Calm 1.1 mph1.8 kmh 29.68 in1005.1 mb 0.00 in0.0 mm 0.00 in0.0 mm 0.02 in0.5 mm
09:10 AM 44.4°F6.9°C 41.7°F5.4°C 90% 1.6 mph NE2.6 kmh NE 1.8 mph2.9 kmh 29.68 in1005.1 mb 0.00 in0.0 mm 0.00 in0.0 mm 0.02 in0.5 mm
09:15 AM 44.6°F7.0°C 41.9°F5.5°C 90% Calm Calm 1.8 mph2.9 kmh 29.68 in1005.1 mb 0.00 in0.0 mm 0.00 in0.0 mm 0.02 in0.5 mm
09:20 AM 44.8°F7.1°C 42.1°F5.6°C 90% Calm Calm 2.0 mph3.2 kmh 29.69 in1005.4 mb 0.00 in0.0 mm 0.00 in0.0 mm 0.02 in0.5 mm
09:25 AM 45.1°F7.3°C 42.4°F5.8°C 90% Calm Calm 2.0 mph3.2 kmh 29.69 in1005.4 mb 0.00 in0.0 mm 0.00 in0.0 mm 0.02 in0.5 mm
09:30 AM 45.5°F7.5°C 42.8°F6.0°C 90% 2.0 mph NE3.2 kmh NE 2.2 mph3.5 kmh 29.69 in1005.4 mb 0.00 in0.0 mm 0.00 in0.0 mm 0.02 in0.5 mm
09:35 AM 45.5°F7.5°C 42.8°F6.0°C 90% Calm Calm 2.2 mph3.5 kmh 29.69 in1005.4 mb 0.00 in0.0 mm 0.00 in0.0 mm 0.02 in0.5 mm
09:40 AM 45.5°F7.5°C 42.8°F6.0°C 90% Calm Calm 1.8 mph2.9 kmh 29.69 in1005.4 mb 0.00 in0.0 mm 0.00 in0.0 mm 0.02 in0.5 mm
09:45 AM 45.5°F7.5°C 42.8°F6.0°C 90% Calm Calm 1.6 mph2.6 kmh 29.69 in1005.4 mb 0.00 in0.0 mm 0.00 in0.0 mm 0.02 in0.5 mm
09:50 AM 45.7°F7.6°C 43.0°F6.1°C 90% Calm Calm 1.6 mph2.6 kmh 29.69 in1005.4 mb 0.00 in0.0 mm 0.00 in0.0 mm 0.02 in0.5 mm
09:55 AM 45.7°F7.6°C 43.0°F6.1°C 90% 1.3 mph S2.1 kmh S 1.3 mph2.1 kmh 29.69 in1005.4 mb 0.00 in0.0 mm 0.00 in0.0 mm 0.02 in0.5 mm
10:00 AM 46.0°F7.8°C 43.3°F6.3°C 90% Calm Calm 1.3 mph2.1 kmh 29.69 in1005.4 mb 0.00 in0.0 mm 0.00 in0.0 mm 0.02 in0.5 mm
10:05 AM 46.0°F7.8°C 43.3°F6.3°C 90% Calm Calm 1.6 mph2.6 kmh 29.69 in1005.4 mb 0.00 in0.0 mm 0.00 in0.0 mm 0.02 in0.5 mm
10:10 AM 46.2°F7.9°C 43.5°F6.4°C 90% 1.1 mph SW1.8 kmh SW 1.6 mph2.6 kmh 29.69 in1005.4 mb 0.00 in0.0 mm 0.00 in0.0 mm 0.02 in0.5 mm
10:15 AM 46.6°F8.1°C 43.9°F6.6°C 90% 1.6 mph SW2.6 kmh SW 1.6 mph2.6 kmh 29.68 in1005.1 mb 0.00 in0.0 mm 0.00 in0.0 mm 0.02 in0.5 mm
10:20 AM 46.6°F8.1°C 43.9°F6.6°C 90% Calm Calm 2.2 mph3.5 kmh 29.68 in1005.1 mb 0.00 in0.0 mm 0.00 in0.0 mm 0.02 in0.5 mm
10:25 AM 46.6°F8.1°C 43.9°F6.6°C 90% Calm Calm 2.2 mph3.5 kmh 29.68 in1005.1 mb 0.00 in0.0 mm 0.00 in0.0 mm 0.02 in0.5 mm
10:30 AM 46.6°F8.1°C 43.6°F6.4°C 89% Calm Calm 1.8 mph2.9 kmh 29.67 in1004.7 mb 0.00 in0.0 mm 0.00 in0.0 mm 0.02 in0.5 mm
10:35 AM 46.4°F8.0°C 43.4°F6.3°C 89% 1.6 mph SSW2.6 kmh SSW 2.9 mph4.7 kmh 29.67 in1004.7 mb 0.00 in0.0 mm 0.00 in0.0 mm 0.02 in0.5 mm
10:40 AM 46.2°F7.9°C 43.2°F6.2°C 89% Calm Calm 2.9 mph4.7 kmh 29.67 in1004.7 mb 0.00 in0.0 mm 0.00 in0.0 mm 0.02 in0.5 mm
10:45 AM 46.2°F7.9°C 42.9°F6.1°C 88% 1.6 mph SSW2.6 kmh SSW 2.5 mph4.0 kmh 29.66 in1004.4 mb 0.00 in0.0 mm 0.00 in0.0 mm 0.02 in0.5 mm
10:50 AM 46.2°F7.9°C 42.9°F6.1°C 88% 1.3 mph SSW2.1 kmh SSW 2.0 mph3.2 kmh 29.66 in1004.4 mb 0.00 in0.0 mm 0.00 in0.0 mm 0.02 in0.5 mm
10:55 AM 46.6°F8.1°C 43.3°F6.3°C 88% Calm Calm 2.0 mph3.2 kmh 29.66 in1004.4 mb 0.00 in0.0 mm 0.00 in0.0 mm 0.02 in0.5 mm
11:00 AM 46.6°F8.1°C 43.6°F6.4°C 89% Calm Calm 2.0 mph3.2 kmh 29.66 in1004.4 mb 0.00 in0.0 mm 0.00 in0.0 mm 0.02 in0.5 mm
11:05 AM 46.8°F8.2°C 43.4°F6.3°C 88% Calm Calm 1.3 mph2.1 kmh 29.66 in1004.4 mb 0.00 in0.0 mm 0.00 in0.0 mm 0.02 in0.5 mm
11:10 AM 46.9°F8.3°C 43.9°F6.6°C 89% 1.1 mph SW1.8 kmh SW 1.1 mph1.8 kmh 29.66 in1004.4 mb 0.00 in0.0 mm 0.00 in0.0 mm 0.02 in0.5 mm
11:15 AM 46.9°F8.3°C 43.6°F6.4°C 88% Calm Calm 1.1 mph1.8 kmh 29.66 in1004.4 mb 0.00 in0.0 mm 0.00 in0.0 mm 0.02 in0.5 mm
11:20 AM 47.1°F8.4°C 43.8°F6.6°C 88% 1.6 mph N2.6 kmh N 1.6 mph2.6 kmh 29.65 in1004.1 mb 0.00 in0.0 mm 0.00 in0.0 mm 0.02 in0.5 mm
11:25 AM 47.1°F8.4°C 43.8°F6.6°C 88% Calm Calm 2.5 mph4.0 kmh 29.65 in1004.1 mb 0.00 in0.0 mm 0.00 in0.0 mm 0.02 in0.5 mm
11:30 AM 47.1°F8.4°C 43.8°F6.6°C 88% Calm Calm 2.5 mph4.0 kmh 29.65 in1004.1 mb 0.00 in0.0 mm 0.00 in0.0 mm 0.02 in0.5 mm
11:35 AM 47.1°F8.4°C 43.8°F6.6°C 88% 1.8 mph SSE2.9 kmh SSE 1.8 mph2.9 kmh 29.65 in1004.1 mb 0.00 in0.0 mm 0.00 in0.0 mm 0.02 in0.5 mm
11:40 AM 47.1°F8.4°C 43.8°F6.6°C 88% 0.9 mph S1.4 kmh S 2.0 mph3.2 kmh 29.65 in1004.1 mb 0.00 in0.0 mm 0.00 in0.0 mm 0.02 in0.5 mm
11:45 AM 47.1°F8.4°C 43.8°F6.6°C 88% Calm Calm 2.0 mph3.2 kmh 29.64 in1003.7 mb 0.00 in0.0 mm 0.00 in0.0 mm 0.02 in0.5 mm
11:50 AM 47.3°F8.5°C 44.0°F6.7°C 88% Calm Calm 2.0 mph3.2 kmh 29.63 in1003.4 mb 0.00 in0.0 mm 0.00 in0.0 mm 0.02 in0.5 mm
11:55 AM 47.5°F8.6°C 44.1°F6.7°C 88% Calm Calm 1.8 mph2.9 kmh 29.64 in1003.7 mb 0.02 in0.5 mm 0.24 in6.1 mm 0.04 in1.0 mm
12:00 PM 47.5°F8.6°C 44.1°F6.7°C 88% 2.0 mph SW3.2 kmh SW 2.2 mph3.5 kmh 29.64 in1003.7 mb 0.02 in0.5 mm 0.00 in0.0 mm 0.04 in1.0 mm
12:05 PM 47.5°F8.6°C 43.8°F6.6°C 87% 4.0 mph S6.4 kmh S 4.5 mph7.2 kmh 29.64 in1003.7 mb 0.02 in0.5 mm 0.00 in0.0 mm 0.04 in1.0 mm
12:10 PM 47.5°F8.6°C 43.8°F6.6°C 87% Calm Calm 4.5 mph7.2 kmh 29.64 in1003.7 mb 0.02 in0.5 mm 0.00 in0.0 mm 0.04 in1.0 mm
12:15 PM 47.5°F8.6°C 43.8°F6.6°C 87% 1.8 mph S2.9 kmh S 5.4 mph8.7 kmh 29.63 in1003.4 mb 0.04 in1.0 mm 0.24 in6.1 mm 0.06 in1.5 mm
12:20 PM 47.5°F8.6°C 43.8°F6.6°C 87% 1.6 mph SE2.6 kmh SE 5.4 mph8.7 kmh 29.64 in1003.7 mb 0.04 in1.0 mm 0.00 in0.0 mm 0.06 in1.5 mm
12:25 PM 47.5°F8.6°C 43.8°F6.6°C 87% Calm Calm 4.0 mph6.4 kmh 29.64 in1003.7 mb 0.06 in1.5 mm 0.24 in6.1 mm 0.08 in2.0 mm
12:30 PM 47.5°F8.6°C 44.1°F6.7°C 88% 1.6 mph SSW2.6 kmh SSW 4.0 mph6.4 kmh 29.64 in1003.7 mb 0.06 in1.5 mm 0.00 in0.0 mm 0.08 in2.0 mm
12:35 PM 47.5°F8.6°C 44.1°F6.7°C 88% Calm Calm 2.7 mph4.3 kmh 29.64 in1003.7 mb 0.06 in1.5 mm 0.00 in0.0 mm 0.08 in2.0 mm
12:40 PM 47.5°F8.6°C 44.1°F6.7°C 88% 0.7 mph SSW1.1 kmh SSW 3.1 mph5.0 kmh 29.63 in1003.4 mb 0.10 in2.5 mm 0.48 in12.2 mm 0.12 in3.0 mm
12:45 PM 47.1°F8.4°C 43.8°F6.6°C 88% Calm Calm 3.1 mph5.0 kmh 29.63 in1003.4 mb 0.10 in2.5 mm 0.00 in0.0 mm 0.12 in3.0 mm
12:50 PM 47.1°F8.4°C 44.1°F6.7°C 89% Calm Calm 1.1 mph1.8 kmh 29.63 in1003.4 mb 0.12 in3.0 mm 0.24 in6.1 mm 0.14 in3.6 mm
12:55 PM 47.1°F8.4°C 44.1°F6.7°C 89% Calm Calm 0.9 mph1.4 kmh 29.63 in1003.4 mb 0.12 in3.0 mm 0.00 in0.0 mm 0.16 in4.1 mm
01:00 PM 47.1°F8.4°C 44.1°F6.7°C 89% Calm Calm 1.8 mph2.9 kmh 29.63 in1003.4 mb 0.12 in3.0 mm 0.00 in0.0 mm 0.16 in4.1 mm
01:05 PM 47.1°F8.4°C 44.1°F6.7°C 89% Calm Calm 1.8 mph2.9 kmh 29.63 in1003.4 mb 0.14 in3.6 mm 0.24 in6.1 mm 0.18 in4.6 mm
01:10 PM 47.1°F8.4°C 44.1°F6.7°C 89% Calm Calm 1.6 mph2.6 kmh 29.64 in1003.7 mb 0.16 in4.1 mm 0.24 in6.1 mm 0.20 in5.1 mm
01:15 PM 47.1°F8.4°C 44.1°F6.7°C 89% 1.6 mph SW2.6 kmh SW 1.6 mph2.6 kmh 29.63 in1003.4 mb 0.14 in3.6 mm 0.00 in0.0 mm 0.20 in5.1 mm
01:20 PM 47.1°F8.4°C 44.1°F6.7°C 89% Calm Calm 1.6 mph2.6 kmh 29.63 in1003.4 mb 0.16 in4.1 mm 0.24 in6.1 mm 0.22 in5.6 mm
01:25 PM 47.1°F8.4°C 44.1°F6.7°C 89% 1.6 mph WNW2.6 kmh WNW 2.0 mph3.2 kmh 29.62 in1003.0 mb 0.14 in3.6 mm 0.00 in0.0 mm 0.22 in5.6 mm
01:30 PM 47.1°F8.4°C 44.1°F6.7°C 89% Calm Calm 2.0 mph3.2 kmh 29.61 in1002.7 mb 0.16 in4.1 mm 0.24 in6.1 mm 0.24 in6.1 mm
01:35 PM 46.9°F8.3°C 43.9°F6.6°C 89% Calm Calm 1.6 mph2.6 kmh 29.61 in1002.7 mb 0.16 in4.1 mm 0.00 in0.0 mm 0.24 in6.1 mm
01:40 PM 46.9°F8.3°C 44.2°F6.8°C 90% Calm Calm -- 29.61 in1002.7 mb 0.14 in3.6 mm 0.00 in0.0 mm 0.27 in6.9 mm
01:45 PM 46.9°F8.3°C 44.2°F6.8°C 90% Calm Calm 1.3 mph2.1 kmh 29.61 in1002.7 mb 0.14 in3.6 mm 0.00 in0.0 mm 0.27 in6.9 mm
01:50 PM 46.9°F8.3°C 44.2°F6.8°C 90% Calm Calm 1.3 mph2.1 kmh 29.61 in1002.7 mb 0.12 in3.0 mm 0.00 in0.0 mm 0.27 in6.9 mm
01:55 PM 46.8°F8.2°C 44.1°F6.7°C 90% Calm Calm 1.3 mph2.1 kmh 29.60 in1002.4 mb 0.12 in3.0 mm 0.00 in0.0 mm 0.29 in7.4 mm
02:00 PM 46.6°F8.1°C 43.9°F6.6°C 90% 0.9 mph E1.4 kmh E 1.3 mph2.1 kmh 29.60 in1002.4 mb 0.12 in3.0 mm 0.00 in0.0 mm 0.29 in7.4 mm
02:05 PM 46.6°F8.1°C 43.9°F6.6°C 90% Calm Calm 1.3 mph2.1 kmh 29.61 in1002.7 mb 0.10 in2.5 mm 0.00 in0.0 mm 0.29 in7.4 mm
02:10 PM 46.6°F8.1°C 43.9°F6.6°C 90% Calm Calm 0.7 mph1.1 kmh 29.61 in1002.7 mb 0.08 in2.0 mm 0.00 in0.0 mm 0.29 in7.4 mm
02:15 PM 46.2°F7.9°C 43.5°F6.4°C 90% Calm Calm 1.3 mph2.1 kmh 29.60 in1002.4 mb 0.10 in2.5 mm 0.24 in6.1 mm 0.31 in7.9 mm
02:20 PM 46.2°F7.9°C 43.5°F6.4°C 90% Calm Calm 1.3 mph2.1 kmh 29.60 in1002.4 mb 0.08 in2.0 mm 0.00 in0.0 mm 0.31 in7.9 mm
02:25 PM 46.0°F7.8°C 43.3°F6.3°C 90% 1.6 mph ESE2.6 kmh ESE 1.6 mph2.6 kmh 29.60 in1002.4 mb 0.08 in2.0 mm 0.00 in0.0 mm 0.31 in7.9 mm
02:30 PM 45.7°F7.6°C 43.0°F6.1°C 90% Calm Calm 1.6 mph2.6 kmh 29.60 in1002.4 mb 0.06 in1.5 mm 0.00 in0.0 mm 0.31 in7.9 mm
02:35 PM 45.7°F7.6°C 43.0°F6.1°C 90% Calm Calm 1.6 mph2.6 kmh 29.60 in1002.4 mb 0.08 in2.0 mm 0.24 in6.1 mm 0.33 in8.4 mm
02:40 PM 45.7°F7.6°C 43.0°F6.1°C 90% Calm Calm 1.3 mph2.1 kmh 29.60 in1002.4 mb 0.06 in1.5 mm 0.00 in0.0 mm 0.33 in8.4 mm
02:45 PM 45.7°F7.6°C 43.0°F6.1°C 90% 2.5 mph SSW4.0 kmh SSW 2.5 mph4.0 kmh 29.59 in1002.0 mb 0.06 in1.5 mm 0.00 in0.0 mm 0.33 in8.4 mm
02:50 PM 45.7°F7.6°C 43.0°F6.1°C 90% Calm Calm 2.5 mph4.0 kmh 29.59 in1002.0 mb 0.06 in1.5 mm 0.00 in0.0 mm 0.33 in8.4 mm
02:55 PM 45.7°F7.6°C 43.0°F6.1°C 90% 3.1 mph SSW5.0 kmh SSW 3.1 mph5.0 kmh 29.59 in1002.0 mb 0.04 in1.0 mm 0.00 in0.0 mm 0.33 in8.4 mm
03:00 PM 45.3°F7.4°C 42.6°F5.9°C 90% Calm Calm 3.1 mph5.0 kmh 29.58 in1001.7 mb 0.06 in1.5 mm 0.02 in0.5 mm 0.35 in8.9 mm
03:05 PM 45.3°F7.4°C 42.6°F5.9°C 90% 3.1 mph SSW5.0 kmh SSW 4.7 mph7.6 kmh 29.59 in1002.0 mb 0.06 in1.5 mm 0.00 in0.0 mm 0.35 in8.9 mm
03:10 PM 45.5°F7.5°C 42.8°F6.0°C 90% Calm Calm 4.7 mph7.6 kmh 29.58 in1001.7 mb 0.06 in1.5 mm 0.00 in0.0 mm 0.35 in8.9 mm
03:15 PM 45.3°F7.4°C 42.6°F5.9°C 90% Calm Calm 4.5 mph7.2 kmh 29.58 in1001.7 mb 0.06 in1.5 mm 0.00 in0.0 mm 0.37 in9.4 mm
03:20 PM 45.1°F7.3°C 42.4°F5.8°C 90% 1.6 mph SW2.6 kmh SW 2.0 mph3.2 kmh 29.58 in1001.7 mb 0.06 in1.5 mm 0.00 in0.0 mm 0.37 in9.4 mm
03:25 PM 45.3°F7.4°C 42.6°F5.9°C 90% Calm Calm 2.0 mph3.2 kmh 29.57 in1001.4 mb 0.06 in1.5 mm 0.00 in0.0 mm 0.37 in9.4 mm
03:30 PM 45.3°F7.4°C 42.6°F5.9°C 90% 1.3 mph SSW2.1 kmh SSW 2.0 mph3.2 kmh 29.57 in1001.4 mb 0.06 in1.5 mm 0.00 in0.0 mm 0.37 in9.4 mm
03:35 PM 45.3°F7.4°C 42.6°F5.9°C 90% Calm Calm 2.0 mph3.2 kmh 29.56 in1001.0 mb 0.04 in1.0 mm 0.00 in0.0 mm 0.37 in9.4 mm
03:40 PM 45.1°F7.3°C 42.4°F5.8°C 90% 2.5 mph NE4.0 kmh NE 4.7 mph7.6 kmh 29.56 in1001.0 mb 0.04 in1.0 mm 0.00 in0.0 mm 0.37 in9.4 mm
03:45 PM 45.1°F7.3°C 42.4°F5.8°C 90% Calm Calm 4.7 mph7.6 kmh 29.56 in1001.0 mb 0.04 in1.0 mm 0.00 in0.0 mm 0.37 in9.4 mm
03:50 PM 45.3°F7.4°C 42.6°F5.9°C 90% 2.5 mph NNE4.0 kmh NNE 4.5 mph7.2 kmh 29.55 in1000.7 mb 0.04 in1.0 mm 0.00 in0.0 mm 0.37 in9.4 mm
03:55 PM 45.1°F7.3°C 42.4°F5.8°C 90% 2.5 mph NE4.0 kmh NE 3.8 mph6.1 kmh 29.55 in1000.7 mb 0.06 in1.5 mm 0.24 in6.1 mm 0.39 in9.9 mm
04:00 PM 45.3°F7.4°C 42.6°F5.9°C 90% 0.9 mph NE1.4 kmh NE 3.8 mph6.1 kmh 29.54 in1000.3 mb 0.04 in1.0 mm 0.00 in0.0 mm 0.39 in9.9 mm
04:05 PM 45.3°F7.4°C 42.6°F5.9°C 90% 1.3 mph NNE2.1 kmh NNE 2.7 mph4.3 kmh 29.53 in1000.0 mb 0.04 in1.0 mm 0.00 in0.0 mm 0.39 in9.9 mm
04:10 PM 45.3°F7.4°C 42.6°F5.9°C 90% 1.8 mph NNE2.9 kmh NNE 3.4 mph5.5 kmh 29.53 in1000.0 mb 0.04 in1.0 mm 0.00 in0.0 mm 0.39 in9.9 mm
04:15 PM 45.3°F7.4°C 42.6°F5.9°C 90% 2.2 mph NNE3.5 kmh NNE 4.5 mph7.2 kmh 29.52 in999.7 mb 0.02 in0.5 mm 0.00 in0.0 mm 0.39 in9.9 mm
04:20 PM 45.3°F7.4°C 42.6°F5.9°C 90% 6.3 mph NE10.1 kmh NE 6.3 mph10.1 kmh 29.51 in999.3 mb 0.02 in0.5 mm 0.00 in0.0 mm 0.39 in9.9 mm
04:25 PM 45.3°F7.4°C 42.6°F5.9°C 90% 6.5 mph NE10.5 kmh NE 6.7 mph10.8 kmh 29.51 in999.3 mb 0.02 in0.5 mm 0.00 in0.0 mm 0.39 in9.9 mm
04:30 PM 45.3°F7.4°C 42.6°F5.9°C 90% 1.3 mph ENE2.1 kmh ENE 8.1 mph13.0 kmh 29.50 in999.0 mb 0.02 in0.5 mm 0.00 in0.0 mm 0.39 in9.9 mm
04:35 PM 45.1°F7.3°C 42.6°F5.9°C 90% 4.5 mph ENE7.2 kmh ENE 8.1 mph13.0 kmh 29.49 in998.6 mb 0.02 in0.5 mm 0.00 in0.0 mm 0.39 in9.9 mm
04:40 PM 45.1°F7.3°C 42.4°F5.8°C 90% 2.9 mph NE4.7 kmh NE 8.9 mph14.3 kmh 29.49 in998.6 mb 0.02 in0.5 mm 0.00 in0.0 mm 0.39 in9.9 mm
04:45 PM 45.1°F7.3°C 42.7°F5.9°C 91% 3.1 mph ENE5.0 kmh ENE 8.9 mph14.3 kmh 29.49 in998.6 mb 0.02 in0.5 mm 0.00 in0.0 mm 0.39 in9.9 mm
04:50 PM 45.1°F7.3°C 42.7°F5.9°C 91% Calm Calm 8.9 mph14.3 kmh 29.50 in999.0 mb 0.02 in0.5 mm 0.00 in0.0 mm 0.39 in9.9 mm
04:55 PM 45.1°F7.3°C 42.7°F5.9°C 91% 6.7 mph ENE10.8 kmh ENE 7.8 mph12.6 kmh 29.50 in999.0 mb 0.00 in0.0 mm 0.00 in0.0 mm 0.39 in9.9 mm
05:00 PM 45.1°F7.3°C 42.7°F5.9°C 91% 3.8 mph ENE6.1 kmh ENE 7.8 mph12.6 kmh 29.50 in999.0 mb 0.02 in0.5 mm 0.02 in0.5 mm 0.41 in10.4 mm
05:05 PM 45.1°F7.3°C 42.7°F5.9°C 91% 2.5 mph E4.0 kmh E 9.8 mph15.8 kmh 29.49 in998.6 mb 0.04 in1.0 mm 0.24 in6.1 mm 0.43 in10.9 mm
05:10 PM 45.1°F7.3°C 42.7°F5.9°C 91% Calm Calm 9.8 mph15.8 kmh 29.49 in998.6 mb 0.04 in1.0 mm 0.00 in0.0 mm 0.43 in10.9 mm
05:15 PM 45.1°F7.3°C 42.7°F5.9°C 91% Calm Calm 7.8 mph12.6 kmh 29.49 in998.6 mb 0.04 in1.0 mm 0.00 in0.0 mm 0.43 in10.9 mm
05:20 PM 45.1°F7.3°C 42.7°F5.9°C 91% 5.6 mph NE9.0 kmh NE 7.8 mph12.6 kmh 29.49 in998.6 mb 0.04 in1.0 mm 0.00 in0.0 mm 0.43 in10.9 mm
05:25 PM 45.1°F7.3°C 43.0°F6.1°C 92% 3.1 mph NE5.0 kmh NE 9.2 mph14.8 kmh 29.48 in998.3 mb 0.06 in1.5 mm 0.24 in6.1 mm 0.45 in11.4 mm
05:30 PM 45.0°F7.2°C 42.8°F6.0°C 92% Calm Calm 9.2 mph14.8 kmh 29.48 in998.3 mb 0.06 in1.5 mm 0.00 in0.0 mm 0.45 in11.4 mm
05:35 PM 45.1°F7.3°C 43.0°F6.1°C 92% 4.7 mph E7.6 kmh E 7.2 mph11.6 kmh 29.49 in998.6 mb 0.08 in2.0 mm 0.24 in6.1 mm 0.47 in11.9 mm
05:40 PM 44.8°F7.1°C 42.6°F5.9°C 92% Calm Calm 7.2 mph11.6 kmh 29.50 in999.0 mb 0.10 in2.5 mm 0.24 in6.1 mm 0.49 in12.4 mm
05:45 PM 44.8°F7.1°C 42.6°F5.9°C 92% Calm Calm 6.9 mph11.1 kmh 29.51 in999.3 mb 0.12 in3.0 mm 0.24 in6.1 mm 0.51 in13.0 mm
05:50 PM 44.8°F7.1°C 42.6°F5.9°C 92% Calm Calm 2.9 mph4.7 kmh 29.51 in999.3 mb 0.14 in3.6 mm 0.24 in6.1 mm 0.53 in13.5 mm
05:55 PM 45.0°F7.2°C 42.8°F6.0°C 92% 1.6 mph WSW2.6 kmh WSW 2.5 mph4.0 kmh 29.52 in999.7 mb 0.16 in4.1 mm 0.24 in6.1 mm 0.55 in14.0 mm
06:00 PM 44.8°F7.1°C 42.6°F5.9°C 92% Calm Calm 3.1 mph5.0 kmh 29.52 in999.7 mb 0.16 in4.1 mm 0.00 in0.0 mm 0.57 in14.5 mm
06:05 PM 44.6°F7.0°C 42.4°F5.8°C 92% Calm Calm 3.1 mph5.0 kmh 29.52 in999.7 mb 0.16 in4.1 mm 0.00 in0.0 mm 0.59 in15.0 mm
06:10 PM 44.6°F7.0°C 42.4°F5.8°C 92% 1.6 mph SSW2.6 kmh SSW 1.8 mph2.9 kmh 29.52 in999.7 mb 0.19 in4.8 mm 0.36 in9.1 mm 0.61 in15.5 mm
06:15 PM 44.8°F7.1°C 42.6°F5.9°C 92% 3.4 mph SW5.5 kmh SW 4.0 mph6.4 kmh 29.52 in999.7 mb 0.20 in5.1 mm 0.12 in3.0 mm 0.63 in16.0 mm
06:20 PM 44.8°F7.1°C 42.6°F5.9°C 92% 2.7 mph SW4.3 kmh SW 4.0 mph6.4 kmh 29.53 in1000.0 mb 0.22 in5.6 mm 0.24 in6.1 mm 0.65 in16.5 mm
06:25 PM 44.8°F7.1°C 42.6°F5.9°C 92% 3.8 mph SW6.1 kmh SW 5.1 mph8.2 kmh 29.52 in999.7 mb 0.22 in5.6 mm 0.00 in0.0 mm 0.67 in17.0 mm
06:30 PM 44.8°F7.1°C 42.6°F5.9°C 92% Calm Calm 5.1 mph8.2 kmh 29.52 in999.7 mb 0.24 in6.1 mm 0.24 in6.1 mm 0.69 in17.5 mm
06:35 PM 44.8°F7.1°C 42.6°F5.9°C 92% 3.6 mph NE5.8 kmh NE 8.1 mph13.0 kmh 29.49 in998.6 mb 0.26 in6.6 mm 0.24 in6.1 mm 0.73 in18.5 mm
06:40 PM 44.8°F7.1°C 42.6°F5.9°C 92% 2.0 mph NE3.2 kmh NE 8.1 mph13.0 kmh 29.49 in998.6 mb 0.29 in7.4 mm 0.36 in9.1 mm 0.78 in19.8 mm
06:45 PM 44.8°F7.1°C 42.6°F5.9°C 92% Calm Calm 4.9 mph7.9 kmh 29.50 in999.0 mb 0.26 in6.6 mm 0.00 in0.0 mm 0.78 in19.8 mm
06:50 PM 44.6°F7.0°C 42.4°F5.8°C 92% 1.6 mph ENE2.6 kmh ENE 3.8 mph6.1 kmh 29.49 in998.6 mb 0.26 in6.6 mm 0.00 in0.0 mm 0.80 in20.3 mm
06:55 PM 44.6°F7.0°C 42.4°F5.8°C 92% 0.7 mph ENE1.1 kmh ENE 3.8 mph6.1 kmh 29.48 in998.3 mb 0.24 in6.1 mm 0.00 in0.0 mm 0.80 in20.3 mm
07:00 PM 44.6°F7.0°C 42.4°F5.8°C 92% 1.1 mph NE1.8 kmh NE 4.9 mph7.9 kmh 29.48 in998.3 mb 0.22 in5.6 mm 0.00 in0.0 mm 0.80 in20.3 mm
07:05 PM 44.6°F7.0°C 42.4°F5.8°C 92% 2.2 mph NE3.5 kmh NE 11.9 mph19.2 kmh 29.48 in998.3 mb 0.20 in5.1 mm 0.00 in0.0 mm 0.80 in20.3 mm
07:10 PM 44.4°F6.9°C 42.3°F5.7°C 92% 4.7 mph NE7.6 kmh NE 11.9 mph19.2 kmh 29.47 in998.0 mb 0.19 in4.8 mm 0.00 in0.0 mm 0.80 in20.3 mm
07:15 PM 44.2°F6.8°C 42.1°F5.6°C 92% 6.0 mph NE9.7 kmh NE 10.5 mph16.9 kmh 29.46 in997.6 mb 0.16 in4.1 mm 0.00 in0.0 mm 0.80 in20.3 mm
07:20 PM 44.1°F6.7°C 41.9°F5.5°C 92% 7.8 mph NE12.6 kmh NE 11.6 mph18.7 kmh 29.46 in997.6 mb 0.14 in3.6 mm 0.00 in0.0 mm 0.80 in20.3 mm
07:25 PM 44.1°F6.7°C 41.9°F5.5°C 92% Calm Calm 11.6 mph18.7 kmh 29.46 in997.6 mb 0.12 in3.0 mm 0.00 in0.0 mm 0.80 in20.3 mm
07:30 PM 44.1°F6.7°C 41.9°F5.5°C 92% 2.2 mph E3.5 kmh E 7.6 mph12.2 kmh 29.46 in997.6 mb 0.10 in2.5 mm 0.00 in0.0 mm 0.80 in20.3 mm
07:35 PM 44.1°F6.7°C 41.9°F5.5°C 92% 4.0 mph E6.4 kmh E 7.4 mph11.9 kmh 29.46 in997.6 mb 0.06 in1.5 mm 0.00 in0.0 mm 0.80 in20.3 mm
07:40 PM 44.1°F6.7°C 41.9°F5.5°C 92% 2.5 mph ENE4.0 kmh ENE 8.3 mph13.4 kmh 29.46 in997.6 mb 0.02 in0.5 mm 0.00 in0.0 mm 0.80 in20.3 mm
07:45 PM 44.1°F6.7°C 41.9°F5.5°C 92% 4.5 mph ENE7.2 kmh ENE 8.3 mph13.4 kmh 29.46 in997.6 mb 0.02 in0.5 mm 0.00 in0.0 mm 0.80 in20.3 mm
07:50 PM 44.1°F6.7°C 41.9°F5.5°C 92% 2.9 mph NE4.7 kmh NE 8.1 mph13.0 kmh 29.45 in997.3 mb 0.00 in0.0 mm 0.00 in0.0 mm 0.80 in20.3 mm
07:55 PM 44.1°F6.7°C 41.9°F5.5°C 92% Calm Calm 8.1 mph13.0 kmh 29.46 in997.6 mb 0.00 in0.0 mm 0.00 in0.0 mm 0.80 in20.3 mm
08:00 PM 44.1°F6.7°C 41.9°F5.5°C 92% 3.4 mph NE5.5 kmh NE 8.3 mph13.4 kmh 29.45 in997.3 mb 0.00 in0.0 mm 0.00 in0.0 mm 0.80 in20.3 mm
08:05 PM 43.9°F6.6°C 41.7°F5.4°C 92% Calm Calm 8.3 mph13.4 kmh 29.45 in997.3 mb 0.00 in0.0 mm 0.00 in0.0 mm 0.80 in20.3 mm
08:10 PM 44.1°F6.7°C 41.9°F5.5°C 92% Calm Calm 6.7 mph10.8 kmh 29.45 in997.3 mb 0.00 in0.0 mm 0.00 in0.0 mm 0.80 in20.3 mm
08:15 PM 44.1°F6.7°C 41.9°F5.5°C 92% 3.6 mph E5.8 kmh E 7.2 mph11.6 kmh 29.44 in997.0 mb 0.00 in0.0 mm 0.00 in0.0 mm 0.80 in20.3 mm
08:20 PM 44.2°F6.8°C 42.1°F5.6°C 92% 2.0 mph E3.2 kmh E 7.2 mph11.6 kmh 29.44 in997.0 mb 0.00 in0.0 mm 0.00 in0.0 mm 0.80 in20.3 mm
08:25 PM 44.1°F6.7°C 41.9°F5.5°C 92% 2.0 mph ENE3.2 kmh ENE 5.1 mph8.2 kmh 29.43 in996.6 mb 0.00 in0.0 mm 0.00 in0.0 mm 0.80 in20.3 mm
08:30 PM 44.2°F6.8°C 42.1°F5.6°C 92% 5.1 mph E8.2 kmh E 6.7 mph10.8 kmh 29.42 in996.3 mb 0.00 in0.0 mm 0.00 in0.0 mm 0.80 in20.3 mm
08:35 PM 44.2°F6.8°C 42.1°F5.6°C 92% 3.1 mph E5.0 kmh E 6.7 mph10.8 kmh 29.41 in995.9 mb 0.00 in0.0 mm 0.00 in0.0 mm 0.80 in20.3 mm
08:40 PM 44.1°F6.7°C 41.9°F5.5°C 92% Calm Calm 6.3 mph10.1 kmh 29.41 in995.9 mb 0.00 in0.0 mm 0.00 in0.0 mm 0.80 in20.3 mm
08:45 PM 44.2°F6.8°C 42.1°F5.6°C 92% 2.0 mph SE3.2 kmh SE 5.4 mph8.7 kmh 29.41 in995.9 mb 0.00 in0.0 mm 0.00 in0.0 mm 0.80 in20.3 mm
08:50 PM 44.2°F6.8°C 42.1°F5.6°C 92% Calm Calm 5.4 mph8.7 kmh 29.41 in995.9 mb 0.00 in0.0 mm 0.00 in0.0 mm 0.80 in20.3 mm
08:55 PM 44.2°F6.8°C 42.1°F5.6°C 92% 2.5 mph E4.0 kmh E 5.6 mph9.0 kmh 29.41 in995.9 mb 0.00 in0.0 mm 0.00 in0.0 mm 0.80 in20.3 mm
09:00 PM 44.4°F6.9°C 42.3°F5.7°C 92% Calm Calm 5.6 mph9.0 kmh 29.41 in995.9 mb 0.00 in0.0 mm 0.00 in0.0 mm 0.80 in20.3 mm
09:05 PM 44.4°F6.9°C 42.3°F5.7°C 92% 1.3 mph E2.1 kmh E 5.6 mph9.0 kmh 29.41 in995.9 mb 0.00 in0.0 mm 0.00 in0.0 mm 0.80 in20.3 mm
09:10 PM 44.6°F7.0°C 42.4°F5.8°C 92% 2.5 mph E4.0 kmh E 6.3 mph10.1 kmh 29.41 in995.9 mb 0.00 in0.0 mm 0.00 in0.0 mm 0.80 in20.3 mm
09:15 PM 44.8°F7.1°C 42.6°F5.9°C 92% Calm Calm 6.3 mph10.1 kmh 29.42 in996.3 mb 0.00 in0.0 mm 0.00 in0.0 mm 0.80 in20.3 mm
09:20 PM 44.8°F7.1°C 42.6°F5.9°C 92% Calm Calm 6.7 mph10.8 kmh 29.42 in996.3 mb 0.00 in0.0 mm 0.00 in0.0 mm 0.80 in20.3 mm
09:25 PM 45.0°F7.2°C 43.1°F6.2°C 93% 3.4 mph S5.5 kmh S 6.7 mph10.8 kmh 29.42 in996.3 mb 0.00 in0.0 mm 0.00 in0.0 mm 0.80 in20.3 mm
09:30 PM 45.1°F7.3°C 43.3°F6.3°C 93% 4.9 mph SW7.9 kmh SW 5.8 mph9.3 kmh 29.43 in996.6 mb 0.00 in0.0 mm 0.00 in0.0 mm 0.80 in20.3 mm
09:35 PM 45.3°F7.4°C 43.2°F6.2°C 92% 3.6 mph SW5.8 kmh SW 6.7 mph10.8 kmh 29.43 in996.6 mb 0.00 in0.0 mm 0.00 in0.0 mm 0.80 in20.3 mm
09:40 PM 45.3°F7.4°C 43.2°F6.2°C 92% 1.8 mph SW2.9 kmh SW 8.9 mph14.3 kmh 29.43 in996.6 mb 0.02 in0.5 mm 0.24 in6.1 mm 0.82 in20.8 mm
09:45 PM 45.5°F7.5°C 43.3°F6.3°C 92% 1.3 mph S2.1 kmh S 8.9 mph14.3 kmh 29.43 in996.6 mb 0.06 in1.5 mm 0.48 in12.2 mm 0.86 in21.8 mm
09:50 PM 45.5°F7.5°C 43.3°F6.3°C 92% Calm Calm 3.6 mph5.8 kmh 29.43 in996.6 mb 0.08 in2.0 mm 0.24 in6.1 mm 0.88 in22.4 mm
09:55 PM 45.5°F7.5°C 43.3°F6.3°C 92% Calm Calm 3.6 mph5.8 kmh 29.43 in996.6 mb 0.08 in2.0 mm 0.00 in0.0 mm 0.88 in22.4 mm
10:00 PM 45.5°F7.5°C 43.3°F6.3°C 92% Calm Calm 1.3 mph2.1 kmh 29.43 in996.6 mb 0.08 in2.0 mm 0.00 in0.0 mm 0.88 in22.4 mm
10:05 PM 45.7°F7.6°C 43.8°F6.6°C 93% 3.4 mph ESE5.5 kmh ESE 3.4 mph5.5 kmh 29.43 in996.6 mb 0.10 in2.5 mm 0.24 in6.1 mm 0.90 in22.9 mm
10:10 PM 45.7°F7.6°C 43.8°F6.6°C 93% 2.2 mph E3.5 kmh E 5.1 mph8.2 kmh 29.43 in996.6 mb 0.12 in3.0 mm 0.24 in6.1 mm 0.92 in23.4 mm
10:15 PM 45.7°F7.6°C 43.8°F6.6°C 93% Calm Calm 6.0 mph9.7 kmh 29.43 in996.6 mb 0.12 in3.0 mm 0.00 in0.0 mm 0.92 in23.4 mm
10:20 PM 45.7°F7.6°C 43.8°F6.6°C 93% 4.3 mph ENE6.9 kmh ENE 6.0 mph9.7 kmh 29.43 in996.6 mb 0.12 in3.0 mm 0.00 in0.0 mm 0.92 in23.4 mm
10:25 PM 45.7°F7.6°C 43.8°F6.6°C 93% 1.6 mph SSE2.6 kmh SSE 6.3 mph10.1 kmh 29.43 in996.6 mb 0.12 in3.0 mm 0.00 in0.0 mm 0.92 in23.4 mm
10:30 PM 45.7°F7.6°C 43.8°F6.6°C 93% 0.9 mph SE1.4 kmh SE 6.3 mph10.1 kmh 29.43 in996.6 mb 0.12 in3.0 mm 0.00 in0.0 mm 0.92 in23.4 mm
10:35 PM 45.7°F7.6°C 43.8°F6.6°C 93% 1.3 mph E2.1 kmh E 4.5 mph7.2 kmh 29.43 in996.6 mb 0.12 in3.0 mm 0.00 in0.0 mm 0.92 in23.4 mm
10:40 PM 45.7°F7.6°C 43.8°F6.6°C 93% Calm Calm 4.5 mph7.2 kmh 29.43 in996.6 mb 0.10 in2.5 mm 0.00 in0.0 mm 0.92 in23.4 mm
10:45 PM 45.7°F7.6°C 43.8°F6.6°C 93% 3.1 mph E5.0 kmh E 3.1 mph5.0 kmh 29.43 in996.6 mb 0.06 in1.5 mm 0.00 in0.0 mm 0.92 in23.4 mm
10:50 PM 45.7°F7.6°C 43.8°F6.6°C 93% Calm Calm 4.7 mph7.6 kmh 29.43 in996.6 mb 0.04 in1.0 mm 0.00 in0.0 mm 0.92 in23.4 mm
10:55 PM 45.5°F7.5°C 43.3°F6.3°C 92% 1.6 mph SE2.6 kmh SE 4.7 mph7.6 kmh 29.43 in996.6 mb 0.04 in1.0 mm 0.00 in0.0 mm 0.92 in23.4 mm
11:00 PM 45.5°F7.5°C 43.3°F6.3°C 92% 1.3 mph S2.1 kmh S 5.1 mph8.2 kmh 29.43 in996.6 mb 0.04 in1.0 mm 0.00 in0.0 mm 0.92 in23.4 mm
11:05 PM 45.5°F7.5°C 43.3°F6.3°C 92% Calm Calm 5.8 mph9.3 kmh 29.43 in996.6 mb 0.02 in0.5 mm 0.00 in0.0 mm 0.92 in23.4 mm
11:10 PM 45.5°F7.5°C 43.3°F6.3°C 92% Calm Calm 5.8 mph9.3 kmh 29.43 in996.6 mb 0.00 in0.0 mm 0.00 in0.0 mm 0.92 in23.4 mm
11:15 PM 45.5°F7.5°C 43.3°F6.3°C 92% Calm Calm 5.8 mph9.3 kmh 29.42 in996.3 mb 0.00 in0.0 mm 0.00 in0.0 mm 0.92 in23.4 mm
11:20 PM 45.5°F7.5°C 43.3°F6.3°C 92% 0.9 mph SSW1.4 kmh SSW 3.6 mph5.8 kmh 29.42 in996.3 mb 0.00 in0.0 mm 0.00 in0.0 mm 0.92 in23.4 mm
11:25 PM 45.5°F7.5°C 43.3°F6.3°C 92% 1.3 mph SE2.1 kmh SE 3.6 mph5.8 kmh 29.42 in996.3 mb 0.00 in0.0 mm 0.00 in0.0 mm 0.92 in23.4 mm
11:30 PM 45.5°F7.5°C 43.3°F6.3°C 92% 3.1 mph SE5.0 kmh SE 5.8 mph9.3 kmh 29.42 in996.3 mb 0.00 in0.0 mm 0.00 in0.0 mm 0.92 in23.4 mm
11:35 PM 45.5°F7.5°C 43.3°F6.3°C 92% 2.0 mph SE3.2 kmh SE 5.8 mph9.3 kmh 29.42 in996.3 mb 0.00 in0.0 mm 0.00 in0.0 mm 0.92 in23.4 mm
11:40 PM 45.5°F7.5°C 43.3°F6.3°C 92% Calm Calm 4.0 mph6.4 kmh 29.42 in996.3 mb 0.00 in0.0 mm 0.00 in0.0 mm 0.92 in23.4 mm
11:45 PM 45.5°F7.5°C 43.3°F6.3°C 92% Calm Calm 2.2 mph3.5 kmh 29.42 in996.3 mb 0.00 in0.0 mm 0.00 in0.0 mm 0.92 in23.4 mm
11:50 PM 45.5°F7.5°C 43.3°F6.3°C 92% 3.6 mph SE5.8 kmh SE 5.8 mph9.3 kmh 29.41 in995.9 mb 0.00 in0.0 mm 0.00 in0.0 mm 0.92 in23.4 mm
11:55 PM 45.5°F7.5°C 43.3°F6.3°C 92% 1.1 mph SE1.8 kmh SE 5.8 mph9.3 kmh 29.41 in995.9 mb 0.00 in0.0 mm 0.00 in0.0 mm 0.92 in23.4 mm